createdAt,value
2022-12-23T00:01:49.498Z,96072.38
2022-12-23T00:04:16.007Z,96062.81
2022-12-23T00:06:42.401Z,96060.22
2022-12-23T00:09:08.769Z,96075.25
2022-12-23T00:11:35.199Z,96071.78
2022-12-23T00:14:21.864Z,96062.81
2022-12-23T00:16:50.533Z,96058.59
2022-12-23T00:19:17.199Z,96054.91
2022-12-23T00:21:43.548Z,96069.19
2022-12-23T00:24:11.906Z,96067.22
2022-12-23T00:26:39.392Z,96060.41
2022-12-23T00:29:05.802Z,96067.22
2022-12-23T00:31:32.297Z,96061.47
2022-12-23T00:33:58.768Z,96065.88
2022-12-23T00:36:27.511Z,96070.91
2022-12-23T00:39:13.829Z,96067.06
2022-12-23T00:41:58.659Z,96078.00
2022-12-23T00:44:25.281Z,96074.84
2022-12-23T00:46:51.640Z,96066.63
2022-12-23T00:49:38.239Z,96061.47
2022-12-23T00:52:06.129Z,96087.31
2022-12-23T00:54:32.559Z,96088.06
2022-12-23T00:57:00.152Z,96078.66
2022-12-23T00:59:26.656Z,96083.84
2022-12-23T01:02:11.623Z,96077.91
2022-12-23T01:04:57.313Z,96082.91
2022-12-23T01:07:24.073Z,96097.38
2022-12-23T01:09:50.529Z,96107.53
2022-12-23T01:12:16.945Z,96107.25
2022-12-23T01:14:43.306Z,96106.78
2022-12-23T01:17:09.788Z,96118.78
2022-12-23T01:19:36.408Z,96122.00
2022-12-23T01:22:03.163Z,96118.81
2022-12-23T01:24:30.731Z,96113.94
2022-12-23T01:26:57.194Z,96121.41
2022-12-23T01:29:23.827Z,96120.19
2022-12-23T01:31:50.256Z,96125.06
2022-12-23T01:34:16.790Z,96142.53
2022-12-23T01:36:43.148Z,96142.38
2022-12-23T01:39:09.510Z,96149.84
2022-12-23T01:41:54.558Z,96146.78
2022-12-23T01:44:50.541Z,96156.38
2022-12-23T01:47:20.364Z,96165.81
2022-12-23T01:49:48.778Z,96158.53
2022-12-23T01:52:15.270Z,96165.78
2022-12-23T01:54:42.944Z,96169.00
2022-12-23T01:57:09.486Z,96184.66
2022-12-23T01:59:54.864Z,96173.88
2022-12-23T02:02:40.864Z,96191.66
2022-12-23T02:05:08.332Z,96189.38
2022-12-23T02:07:54.338Z,96192.44
2022-12-23T02:10:26.276Z,96184.97
2022-12-23T02:13:16.132Z,96192.09
2022-12-23T02:16:17.924Z,96179.94
2022-12-23T02:18:47.052Z,96185.56
2022-12-23T02:21:30.676Z,96197.72
2022-12-23T02:24:34.162Z,96193.47
2022-12-23T02:27:16.885Z,96182.84
2022-12-23T02:30:04.343Z,96196.50
2022-12-23T02:32:43.321Z,96204.75
2022-12-23T02:35:42.936Z,96213.72
2022-12-23T02:38:13.782Z,96212.47
2022-12-23T02:40:49.168Z,96208.06
2022-12-23T02:43:24.691Z,96205.81
2022-12-23T02:46:00.362Z,96211.88
2022-12-23T02:48:38.748Z,96202.78
2022-12-23T02:51:07.696Z,96199.41
2022-12-23T02:53:39.615Z,96205.47
2022-12-23T02:56:08.779Z,96217.50
2022-12-23T02:58:43.307Z,96220.84
2022-12-23T03:01:13.120Z,96200.91
2022-12-23T03:03:40.921Z,96207.91
2022-12-23T03:06:17.542Z,96214.00
2022-12-23T03:08:45.540Z,96222.22
2022-12-23T03:11:14.871Z,96224.66
2022-12-23T03:13:53.213Z,96207.03
2022-12-23T03:16:27.099Z,96225.84
2022-12-23T03:19:02.819Z,96219.47
2022-12-23T03:21:54.635Z,96224.81
2022-12-23T03:24:40.733Z,96220.69
2022-12-23T03:27:30.549Z,96213.69
2022-12-23T03:30:01.883Z,96228.16
2022-12-23T03:32:32.546Z,96226.94
2022-12-23T03:35:01.074Z,96228.91
2022-12-23T03:37:30.311Z,96241.81
2022-12-23T03:40:17.039Z,96235.91
2022-12-23T03:42:46.553Z,96242.31
2022-12-23T03:48:15.411Z,96244.88
2022-12-23T03:50:44.060Z,96238.78
2022-12-23T03:53:16.467Z,96239.56
2022-12-23T03:55:51.506Z,96245.78
2022-12-23T03:58:30.779Z,96245.81
2022-12-23T04:01:09.890Z,96259.50
2022-12-23T04:03:54.660Z,96266.47
2022-12-23T04:06:23.858Z,96267.84
2022-12-23T04:08:51.085Z,96270.44
2022-12-23T04:11:17.506Z,96267.84
2022-12-23T04:13:43.929Z,96257.34
2022-12-23T04:16:10.638Z,96263.72
2022-12-23T04:18:37.054Z,96264.06
2022-12-23T04:21:03.638Z,96261.63
2022-12-23T04:23:30.002Z,96262.38
2022-12-23T04:25:56.504Z,96268.00
2022-12-23T04:28:22.885Z,96252.63
2022-12-23T04:30:49.282Z,96253.88
2022-12-23T04:33:15.689Z,96251.88
2022-12-23T04:35:42.049Z,96254.47
2022-12-23T04:38:08.384Z,96249.59
2022-12-23T04:40:34.755Z,96255.25
2022-12-23T04:43:01.110Z,96261.63
2022-12-23T04:45:27.504Z,96262.84
2022-12-23T04:47:55.149Z,96257.81
2022-12-23T04:50:21.564Z,96270.44
2022-12-23T04:52:47.947Z,96262.53
2022-12-23T04:55:14.315Z,96255.25
2022-12-23T04:57:40.689Z,96265.88
2022-12-23T05:00:07.742Z,96266.47
2022-12-23T05:02:34.375Z,96264.06
2022-12-23T05:05:00.836Z,96273.50
2022-12-23T05:07:27.214Z,96272.41
2022-12-23T05:09:53.584Z,96269.06
2022-12-23T05:12:19.971Z,96280.50
2022-12-23T05:14:47.138Z,96286.13
2022-12-23T05:17:13.540Z,96273.03
2022-12-23T05:19:39.877Z,96290.22
2022-12-23T05:22:06.216Z,96300.28
2022-12-23T05:24:32.569Z,96293.28
2022-12-23T05:27:00.426Z,96299.81
2022-12-23T05:29:27.476Z,96292.66
2022-12-23T05:31:53.893Z,96283.38
2022-12-23T05:34:20.575Z,96280.03
2022-12-23T05:36:46.941Z,96272.88
2022-12-23T05:39:13.517Z,96283.38
2022-12-23T05:41:39.888Z,96282.47
2022-12-23T05:44:06.244Z,96286.72
2022-12-23T05:46:32.757Z,96285.66
2022-12-23T05:48:59.363Z,96308.34
2022-12-23T05:51:25.812Z,96301.94
2022-12-23T05:53:52.189Z,96296.31
2022-12-23T05:56:18.582Z,96317.00
2022-12-23T05:58:44.913Z,96314.56
2022-12-23T06:01:11.276Z,96301.94
2022-12-23T06:03:37.791Z,96296.16
2022-12-23T06:06:04.698Z,96301.47
2022-12-23T06:08:31.046Z,96305.16
2022-12-23T06:10:59.668Z,96292.06
2022-12-23T06:13:26.125Z,96292.66
2022-12-23T06:15:52.479Z,96298.13
2022-12-23T06:18:18.826Z,96311.22
2022-12-23T06:20:47.137Z,96304.84
2022-12-23T06:23:13.831Z,96314.72
2022-12-23T06:25:40.207Z,96310.44
2022-12-23T06:28:07.882Z,96326.75
2022-12-23T06:30:34.461Z,96326.59
2022-12-23T06:33:00.819Z,96331.75
2022-12-23T06:35:27.168Z,96336.16
2022-12-23T06:37:53.549Z,96340.13
2022-12-23T06:40:19.937Z,96338.16
2022-12-23T06:42:46.379Z,96341.81
2022-12-23T06:45:13.308Z,96338.91
2022-12-23T06:47:39.710Z,96333.91
2022-12-23T06:50:06.583Z,96338.78
2022-12-23T06:52:32.968Z,96342.88
2022-12-23T06:54:59.311Z,96340.13
2022-12-23T06:57:25.739Z,96329.03
2022-12-23T06:59:52.088Z,96330.84
2022-12-23T07:02:18.627Z,96320.97
2022-12-23T07:04:45.114Z,96325.84
2022-12-23T07:07:11.518Z,96310.19
2022-12-23T07:09:37.874Z,96325.84
2022-12-23T07:12:04.507Z,96310.94
2022-12-23T07:14:30.900Z,96317.94
2022-12-23T07:16:57.421Z,96331.16
2022-12-23T07:19:23.861Z,96329.34
2022-12-23T07:21:50.255Z,96337.69
2022-12-23T07:24:16.992Z,96344.41
2022-12-23T07:26:43.346Z,96347.44
2022-12-23T07:29:09.715Z,96351.56
2022-12-23T07:31:39.368Z,96354.28
2022-12-23T07:34:07.438Z,96358.41
2022-12-23T07:36:33.826Z,96347.00
2022-12-23T07:39:00.175Z,96364.19
2022-12-23T07:41:26.569Z,96369.81
2022-12-23T07:43:52.917Z,96372.84
2022-12-23T07:46:19.408Z,96367.69
2022-12-23T07:48:45.777Z,96370.25
2022-12-23T07:51:12.257Z,96368.44
2022-12-23T07:53:38.750Z,96370.41
2022-12-23T07:56:05.668Z,96371.34
2022-12-23T07:58:32.114Z,96369.53
2022-12-23T08:01:02.934Z,96349.59
2022-12-23T08:03:30.365Z,96355.38
2022-12-23T08:06:03.097Z,96344.25
2022-12-23T08:08:29.912Z,96352.31
2022-12-23T08:10:58.578Z,96342.88
2022-12-23T08:13:25.068Z,96330.38
2022-12-23T08:15:59.371Z,96349.13
2022-12-23T08:18:26.504Z,96335.41
2022-12-23T08:20:57.890Z,96336.03
2022-12-23T08:23:25.843Z,96352.75
2022-12-23T08:26:22.440Z,96350.78
2022-12-23T08:28:50.516Z,96356.13
2022-12-23T08:31:20.531Z,96357.66
2022-12-23T08:33:49.504Z,96350.66
2022-12-23T08:36:23.092Z,96348.22
2022-12-23T08:38:53.166Z,96362.38
2022-12-23T08:41:22.517Z,96362.06
2022-12-23T08:43:49.544Z,96358.72
2022-12-23T08:46:16.000Z,96362.22
2022-12-23T08:48:48.662Z,96363.72
2022-12-23T08:51:17.176Z,96365.72
2022-12-23T08:53:44.354Z,96362.97
2022-12-23T08:56:13.762Z,96349.91
2022-12-23T08:58:42.899Z,96358.28
2022-12-23T09:01:12.153Z,96352.00
2022-12-23T09:03:39.633Z,96361.91
2022-12-23T09:06:11.467Z,96370.44
2022-12-23T09:08:38.290Z,96393.88
2022-12-23T09:11:04.908Z,96374.56
2022-12-23T09:13:35.566Z,96381.53
2022-12-23T09:16:03.645Z,96371.34
2022-12-23T09:18:30.082Z,96362.81
2022-12-23T09:20:58.677Z,96364.19
2022-12-23T09:23:25.127Z,96376.25
2022-12-23T09:25:51.487Z,96363.91
2022-12-23T09:28:17.843Z,96370.13
2022-12-23T09:30:44.232Z,96364.19
2022-12-23T09:33:10.639Z,96362.22
2022-12-23T09:35:37.042Z,96362.22
2022-12-23T09:38:03.445Z,96367.84
2022-12-23T09:40:32.910Z,96358.84
2022-12-23T09:43:07.244Z,96367.22
2022-12-23T09:45:48.742Z,96364.81
2022-12-23T09:48:18.873Z,96369.06
2022-12-23T09:50:46.616Z,96365.25
2022-12-23T09:53:14.686Z,96376.09
2022-12-23T09:56:06.414Z,96383.09
2022-12-23T09:58:45.624Z,96373.63
2022-12-23T10:01:44.864Z,96376.69
2022-12-23T10:04:42.080Z,96367.38
2022-12-23T10:07:19.846Z,96350.97
2022-12-23T10:09:50.040Z,96356.88
2022-12-23T10:12:28.293Z,96344.25
2022-12-23T10:15:00.738Z,96352.00
2022-12-23T10:17:35.117Z,96338.31
2022-12-23T10:20:04.334Z,96345.91
2022-12-23T10:22:44.921Z,96338.16
2022-12-23T10:25:28.205Z,96329.94
2022-12-23T10:27:54.596Z,96321.88
2022-12-23T10:33:21.792Z,96322.63
2022-12-23T10:36:02.941Z,96304.66
2022-12-23T10:38:51.020Z,96308.16
2022-12-23T10:41:39.095Z,96311.53
2022-12-23T10:44:22.788Z,96298.25
2022-12-23T10:47:00.062Z,96296.72
2022-12-23T10:49:46.720Z,96283.78
2022-12-23T10:52:19.392Z,96276.50
2022-12-23T10:54:47.360Z,96266.59
2022-12-23T10:57:16.685Z,96257.78
2022-12-23T10:59:43.279Z,96252.88
2022-12-23T11:02:12.898Z,96253.31
2022-12-23T11:04:47.834Z,96256.41
2022-12-23T11:07:44.493Z,96238.28
2022-12-23T11:10:20.803Z,96224.13
2022-12-23T11:12:53.028Z,96229.59
2022-12-23T11:15:54.728Z,96231.91
2022-12-23T11:18:21.496Z,96221.25
2022-12-23T11:21:14.252Z,96225.81
2022-12-23T11:23:40.606Z,96216.53
2022-12-23T11:26:18.943Z,96213.19
2022-12-23T11:28:52.120Z,96204.50
2022-12-23T11:31:35.125Z,96184.72
2022-12-23T11:34:05.683Z,96183.06
2022-12-23T11:36:32.923Z,96175.75
2022-12-23T11:39:05.352Z,96184.72
2022-12-23T11:41:49.812Z,96162.97
2022-12-23T11:44:37.724Z,96172.22
2022-12-23T11:47:22.309Z,96170.53
2022-12-23T11:50:00.451Z,96156.06
2022-12-23T11:52:28.907Z,96162.00
2022-12-23T11:55:01.747Z,96148.16
2022-12-23T11:57:45.898Z,96153.75
2022-12-23T12:00:34.599Z,96129.13
2022-12-23T12:03:03.493Z,96130.19
2022-12-23T12:05:36.895Z,96116.63
2022-12-23T12:08:06.907Z,96138.53
2022-12-23T12:10:36.369Z,96130.34
2022-12-23T12:13:06.922Z,96120.00
2022-12-23T12:15:56.274Z,96124.41
2022-12-23T12:18:23.505Z,96101.13
2022-12-23T12:20:59.066Z,96111.63
2022-12-23T12:23:44.168Z,96125.97
2022-12-23T12:26:23.284Z,96116.50
2022-12-23T12:29:30.874Z,96119.41
2022-12-23T12:32:00.203Z,96107.88
2022-12-23T12:34:44.140Z,96100.97
2022-12-23T12:37:19.801Z,96096.72
2022-12-23T12:39:53.944Z,96080.03
2022-12-23T12:42:44.165Z,96080.09
2022-12-23T12:45:13.462Z,96066.88
2022-12-23T12:47:59.960Z,96065.31
2022-12-23T12:50:36.237Z,96053.16
2022-12-23T12:53:14.116Z,96040.66
2022-12-23T12:55:46.161Z,96026.84
2022-12-23T12:58:19.592Z,96032.78
2022-12-23T13:01:02.791Z,96030.59
2022-12-23T13:03:38.090Z,96031.84
2022-12-23T13:06:07.746Z,96029.84
2022-12-23T13:08:51.286Z,96038.97
2022-12-23T13:11:44.943Z,96052.69
2022-12-23T13:14:34.549Z,96024.53
2022-12-23T13:17:12.262Z,96016.91
2022-12-23T13:19:50.701Z,96006.09
2022-12-23T13:22:24.588Z,96010.34
2022-12-23T13:25:05.857Z,95984.06
2022-12-23T13:27:47.206Z,96002.91
2022-12-23T13:30:20.004Z,96001.03
2022-12-23T13:33:08.943Z,95984.44
2022-12-23T13:36:06.080Z,95972.47
2022-12-23T13:39:09.549Z,95981.41
2022-12-23T13:41:50.367Z,95972.56
2022-12-23T13:44:18.624Z,95965.88
2022-12-23T13:47:03.705Z,95973.47
2022-12-23T13:49:57.636Z,95972.84
2022-12-23T13:53:08.966Z,95970.56
2022-12-23T13:55:48.623Z,95966.31
2022-12-23T13:58:22.432Z,95977.88
2022-12-23T14:01:08.557Z,95960.34
2022-12-23T14:03:37.465Z,95960.75
2022-12-23T14:06:30.242Z,95958.41
2022-12-23T14:08:56.670Z,95948.25
2022-12-23T14:11:33.822Z,95955.19
2022-12-23T14:14:06.275Z,95942.88
2022-12-23T14:17:06.213Z,95950.84
2022-12-23T14:19:42.329Z,95930.03
2022-12-23T14:22:34.344Z,95921.94
2022-12-23T14:25:34.516Z,95935.06
2022-12-23T14:28:16.027Z,95926.22
2022-12-23T14:30:47.019Z,95925.16
2022-12-23T14:33:33.902Z,95919.84
2022-12-23T14:36:26.169Z,95915.22
2022-12-23T14:39:11.005Z,95923.22
2022-12-23T14:41:50.679Z,95918.59
2022-12-23T14:44:40.931Z,95941.22
2022-12-23T14:47:33.778Z,95945.03
2022-12-23T14:50:39.717Z,95931.13
2022-12-23T14:53:26.673Z,95924.00
2022-12-23T14:56:07.897Z,95926.94
2022-12-23T14:58:41.349Z,95928.09
2022-12-23T15:01:12.928Z,95926.63
2022-12-23T15:03:45.860Z,95925.38
2022-12-23T15:06:18.150Z,95908.66
2022-12-23T15:08:47.415Z,95909.66
2022-12-23T15:11:22.828Z,95906.56
2022-12-23T15:13:52.100Z,95908.75
2022-12-23T15:16:19.187Z,95903.78
2022-12-23T15:18:56.014Z,95919.97
2022-12-23T15:21:32.231Z,95924.53
2022-12-23T15:23:58.725Z,95920.84
2022-12-23T15:26:30.196Z,95918.88
2022-12-23T15:28:58.976Z,95918.09
2022-12-23T15:31:28.991Z,95919.16
2022-12-23T15:34:06.933Z,95930.66
2022-12-23T15:36:36.853Z,95915.97
2022-12-23T15:39:10.074Z,95926.41
2022-12-23T15:41:44.434Z,95921.34
2022-12-23T15:44:20.132Z,95915.50
2022-12-23T15:46:46.625Z,95909.88
2022-12-23T15:49:13.065Z,95915.91
2022-12-23T15:54:36.799Z,95917.75
2022-12-23T15:57:04.458Z,95906.28
2022-12-23T15:59:38.595Z,95905.00
2022-12-23T16:02:59.711Z,95919.56
2022-12-23T16:05:30.309Z,95912.75
2022-12-23T16:08:19.355Z,95919.13
2022-12-23T16:11:16.183Z,95908.69
2022-12-23T16:14:00.189Z,95911.91
2022-12-23T16:16:42.420Z,95913.00
2022-12-23T16:19:36.900Z,95902.94
2022-12-23T16:22:19.998Z,95895.09
2022-12-23T16:24:50.453Z,95900.91
2022-12-23T16:27:19.672Z,95897.41
2022-12-23T16:29:47.813Z,95907.03
2022-12-23T16:32:19.155Z,95906.16
2022-12-23T16:34:49.953Z,95915.03
2022-12-23T16:37:16.441Z,95904.19
2022-12-23T16:39:42.852Z,95925.41
2022-12-23T16:42:09.275Z,95934.38
2022-12-23T16:44:35.658Z,95914.78
2022-12-23T16:47:08.486Z,95933.28
2022-12-23T16:49:37.212Z,95947.00
2022-12-23T16:52:06.301Z,95958.72
2022-12-23T16:54:32.685Z,95954.44
2022-12-23T16:56:59.170Z,95939.00
2022-12-23T16:59:25.955Z,95931.72
2022-12-23T17:01:56.566Z,95933.91
2022-12-23T17:04:25.959Z,95946.91
2022-12-23T17:06:52.368Z,95943.25
2022-12-23T17:09:19.050Z,95939.91
2022-12-23T17:11:49.032Z,95958.59
2022-12-23T17:14:22.172Z,95954.84
2022-12-23T17:16:49.240Z,95965.91
2022-12-23T17:19:16.292Z,95959.84
2022-12-23T17:21:46.923Z,95967.28
2022-12-23T17:24:22.274Z,95966.13
2022-12-23T17:26:49.077Z,95964.63
2022-12-23T17:29:15.524Z,95979.97
2022-12-23T17:31:43.539Z,95987.75
2022-12-23T17:34:19.703Z,95987.88
2022-12-23T17:36:50.385Z,95992.44
2022-12-23T17:39:17.844Z,95991.81
2022-12-23T17:41:44.278Z,96000.03
2022-12-23T17:44:14.108Z,96003.06
2022-12-23T17:46:40.668Z,96000.16
2022-12-23T17:49:08.103Z,96007.19
2022-12-23T17:51:35.034Z,95999.94
2022-12-23T17:54:02.097Z,96011.84
2022-12-23T17:56:29.023Z,96017.59
2022-12-23T17:58:55.446Z,96014.25
2022-12-23T18:01:31.409Z,96006.25
2022-12-23T18:03:59.704Z,96015.13
2022-12-23T18:06:27.957Z,96037.28
2022-12-23T18:08:55.200Z,96032.41
2022-12-23T18:11:30.214Z,96018.59
2022-12-23T18:13:57.005Z,96018.91
2022-12-23T18:16:23.417Z,96021.91
2022-12-23T18:18:49.892Z,96020.19
2022-12-23T18:21:29.226Z,96019.28
2022-12-23T18:23:58.667Z,96030.66
2022-12-23T18:26:25.362Z,96042.22
2022-12-23T18:28:54.003Z,96047.91
2022-12-23T18:31:23.946Z,96051.28
2022-12-23T18:33:51.145Z,96040.34
2022-12-23T18:36:30.339Z,96052.25
2022-12-23T18:38:57.210Z,96047.75
2022-12-23T18:41:24.831Z,96047.75
2022-12-23T18:43:51.755Z,96065.16
2022-12-23T18:46:19.996Z,96062.34
2022-12-23T18:48:46.699Z,96067.50
2022-12-23T18:51:18.216Z,96069.88
2022-12-23T18:53:46.003Z,96063.44
2022-12-23T18:56:16.853Z,96070.91
2022-12-23T18:58:43.233Z,96074.88
2022-12-23T19:01:13.633Z,96085.88
2022-12-23T19:03:40.611Z,96083.50
2022-12-23T19:06:08.740Z,96091.81
2022-12-23T19:08:37.137Z,96070.34
2022-12-23T19:11:13.312Z,96086.94
2022-12-23T19:13:39.904Z,96091.38
2022-12-23T19:16:06.436Z,96081.97
2022-12-23T19:18:32.937Z,96093.53
2022-12-23T19:21:04.172Z,96088.84
2022-12-23T19:23:30.569Z,96094.22
2022-12-23T19:25:56.957Z,96101.63
2022-12-23T19:28:23.748Z,96101.78
2022-12-23T19:30:50.453Z,96100.97
2022-12-23T19:33:17.226Z,96120.31
2022-12-23T19:35:44.433Z,96110.06
2022-12-23T19:38:12.110Z,96126.59
2022-12-23T19:40:38.599Z,96120.31
2022-12-23T19:43:04.950Z,96134.03
2022-12-23T19:45:31.454Z,96128.75
2022-12-23T19:47:57.802Z,96141.63
2022-12-23T19:50:24.308Z,96134.16
2022-12-23T19:52:51.539Z,96116.97
2022-12-23T19:55:17.976Z,96125.38
2022-12-23T19:57:44.317Z,96122.03
2022-12-23T20:00:11.195Z,96123.84
2022-12-23T20:02:37.797Z,96132.25
2022-12-23T20:05:04.620Z,96145.41
2022-12-23T20:07:30.952Z,96154.50
2022-12-23T20:09:57.301Z,96157.78
2022-12-23T20:12:25.267Z,96161.38
2022-12-23T20:14:51.724Z,96173.78
2022-12-23T20:17:18.097Z,96185.81
2022-12-23T20:19:46.442Z,96181.69
2022-12-23T20:22:13.072Z,96194.72
2022-12-23T20:24:39.455Z,96204.19
2022-12-23T20:27:10.913Z,96200.44
2022-12-23T20:29:38.382Z,96207.38
2022-12-23T20:32:04.978Z,96210.56
2022-12-23T20:34:38.347Z,96200.34
2022-12-23T20:37:05.456Z,96203.13
2022-12-23T20:39:31.846Z,96234.41
2022-12-23T20:41:58.228Z,96219.84
2022-12-23T20:44:34.668Z,96218.94
2022-12-23T20:47:02.663Z,96223.81
2022-12-23T20:49:29.239Z,96231.31
2022-12-23T20:51:55.632Z,96235.56
2022-12-23T20:54:26.381Z,96234.91
2022-12-23T20:56:56.343Z,96238.47
2022-12-23T20:59:22.690Z,96239.78
2022-12-23T21:01:49.264Z,96241.28
2022-12-23T21:04:16.418Z,96231.09
2022-12-23T21:06:43.004Z,96247.00
2022-12-23T21:09:11.576Z,96255.06
2022-12-23T21:11:41.134Z,96252.97
2022-12-23T21:14:08.074Z,96255.16
2022-12-23T21:16:36.957Z,96254.97
2022-12-23T21:19:04.706Z,96263.34
2022-12-23T21:21:31.854Z,96276.31
2022-12-23T21:24:01.361Z,96267.84
2022-12-23T21:26:30.235Z,96272.88
2022-12-23T21:29:01.417Z,96281.06
2022-12-23T21:31:29.631Z,96285.88
2022-12-23T21:33:56.367Z,96282.56
2022-12-23T21:36:26.131Z,96292.81
2022-12-23T21:38:52.609Z,96299.47
2022-12-23T21:41:22.098Z,96293.25
2022-12-23T21:43:49.358Z,96275.28
2022-12-23T21:46:18.191Z,96280.94
2022-12-23T21:48:45.219Z,96301.22
2022-12-23T21:51:23.411Z,96309.88
2022-12-23T21:53:52.976Z,96297.72
2022-12-23T21:56:22.231Z,96326.66
2022-12-23T21:58:48.580Z,96313.72
2022-12-23T22:01:17.966Z,96321.47
2022-12-23T22:03:45.852Z,96317.06
2022-12-23T22:06:15.135Z,96309.91
2022-12-23T22:08:42.207Z,96314.94
2022-12-23T22:11:10.630Z,96315.69
2022-12-23T22:13:37.836Z,96325.28
2022-12-23T22:16:08.720Z,96331.06
2022-12-23T22:18:36.247Z,96323.16
2022-12-23T22:21:08.389Z,96347.72
2022-12-23T22:23:35.835Z,96352.22
2022-12-23T22:26:02.396Z,96355.59
2022-12-23T22:28:31.335Z,96362.31
2022-12-23T22:31:23.857Z,96363.69
2022-12-23T22:33:50.265Z,96354.38
2022-12-23T22:36:17.227Z,96361.56
2022-12-23T22:38:44.026Z,96378.31
2022-12-23T22:41:10.893Z,96367.06
2022-12-23T22:43:37.843Z,96386.06
2022-12-23T22:46:04.878Z,96384.69
2022-12-23T22:48:31.390Z,96390.78
2022-12-23T22:51:09.390Z,96407.09
2022-12-23T22:53:36.576Z,96394.94
2022-12-23T22:56:04.517Z,96385.19
2022-12-23T22:58:32.317Z,96389.00
2022-12-23T23:00:58.918Z,96411.38
2022-12-23T23:03:26.247Z,96404.22
2022-12-23T23:06:06.879Z,96417.00
2022-12-23T23:08:34.501Z,96409.09
2022-12-23T23:11:02.681Z,96421.13
2022-12-23T23:13:34.423Z,96418.25
2022-12-23T23:16:01.721Z,96429.06
2022-12-23T23:18:29.873Z,96428.13
2022-12-23T23:20:56.757Z,96424.97
2022-12-23T23:23:23.189Z,96437.72
2022-12-23T23:25:49.558Z,96438.22
2022-12-23T23:28:16.389Z,96435.16
2022-12-23T23:30:42.816Z,96440.63
2022-12-23T23:33:10.203Z,96456.03
2022-12-23T23:35:37.016Z,96454.34
2022-12-23T23:38:03.458Z,96461.34
2022-12-23T23:40:30.119Z,96459.69
2022-12-23T23:42:56.478Z,96455.09
2022-12-23T23:45:22.878Z,96451.75
2022-12-23T23:47:49.304Z,96454.22
2022-12-23T23:50:15.674Z,96470.03
2022-12-23T23:52:42.022Z,96452.81
2022-12-23T23:55:08.891Z,96459.22
2022-12-23T23:57:35.262Z,96460.59
